createdAt,value
2023-03-19T00:00:29.451Z,53.81
2023-03-19T00:03:36.114Z,53.93
2023-03-19T00:06:42.286Z,53.99
2023-03-19T00:09:48.468Z,54.01
2023-03-19T00:12:52.876Z,54.07
2023-03-19T00:15:58.835Z,54.07
2023-03-19T00:19:05.202Z,54.23
2023-03-19T00:22:09.888Z,54.31
2023-03-19T00:25:15.912Z,54.45
2023-03-19T00:28:21.853Z,54.60
2023-03-19T00:31:29.351Z,54.75
2023-03-19T00:34:35.129Z,54.63
2023-03-19T00:37:42.088Z,54.53
2023-03-19T00:40:48.678Z,54.80
2023-03-19T00:43:57.487Z,54.88
2023-03-19T00:47:03.293Z,54.93
2023-03-19T00:50:11.167Z,54.93
2023-03-19T00:53:17.469Z,55.02
2023-03-19T00:56:23.247Z,55.09
2023-03-19T00:59:29.252Z,55.36
2023-03-19T01:02:35.588Z,55.47
2023-03-19T01:05:39.710Z,55.52
2023-03-19T01:08:45.664Z,55.60
2023-03-19T01:11:51.449Z,55.50
2023-03-19T01:14:57.277Z,55.40
2023-03-19T01:18:03.245Z,55.61
2023-03-19T01:21:10.935Z,55.63
2023-03-19T01:24:17.190Z,55.73
2023-03-19T01:27:23.109Z,55.79
2023-03-19T01:30:29.020Z,55.79
2023-03-19T01:33:35.035Z,55.86
2023-03-19T01:36:40.939Z,55.89
2023-03-19T01:39:46.797Z,56.13
2023-03-19T01:42:57.979Z,56.23
2023-03-19T01:46:08.569Z,56.08
2023-03-19T01:49:15.380Z,56.19
2023-03-19T01:52:22.710Z,56.36
2023-03-19T01:55:28.633Z,56.55
2023-03-19T01:58:34.557Z,56.59
2023-03-19T02:01:45.081Z,56.65
2023-03-19T02:04:55.819Z,56.61
2023-03-19T02:08:05.341Z,56.73
2023-03-19T02:11:11.804Z,56.81
2023-03-19T02:14:16.299Z,56.89
2023-03-19T02:17:23.285Z,56.94
2023-03-19T02:20:33.962Z,57.05
2023-03-19T02:23:46.783Z,57.29
2023-03-19T02:26:53.460Z,57.25
2023-03-19T02:30:01.390Z,57.26
2023-03-19T02:33:08.584Z,57.14
2023-03-19T02:36:19.393Z,57.11
2023-03-19T02:39:31.004Z,57.25
2023-03-19T02:42:36.865Z,57.15
2023-03-19T02:45:42.746Z,57.40
2023-03-19T02:48:48.593Z,57.77
2023-03-19T02:51:54.534Z,57.81
2023-03-19T02:55:00.286Z,57.84
2023-03-19T02:58:06.156Z,57.79
2023-03-19T03:01:12.067Z,58.04
2023-03-19T03:04:17.973Z,58.16
2023-03-19T03:07:23.925Z,57.99
2023-03-19T03:10:30.574Z,58.18
2023-03-19T03:13:37.442Z,58.06
2023-03-19T03:16:43.787Z,58.04
2023-03-19T03:19:47.977Z,58.14
2023-03-19T03:22:53.784Z,58.26
2023-03-19T03:25:59.537Z,58.28
2023-03-19T03:29:05.772Z,58.48
2023-03-19T03:32:12.164Z,58.53
2023-03-19T03:35:21.961Z,58.38
2023-03-19T03:38:28.058Z,58.27
2023-03-19T03:41:33.897Z,58.42
2023-03-19T03:44:39.947Z,58.66
2023-03-19T03:47:46.339Z,58.48
2023-03-19T03:50:50.533Z,58.52
2023-03-19T03:53:56.387Z,58.72
2023-03-19T03:57:03.598Z,58.70
2023-03-19T04:00:13.215Z,58.67
2023-03-19T04:03:19.629Z,58.81
2023-03-19T04:06:28.593Z,58.95
2023-03-19T04:09:34.371Z,59.06
2023-03-19T04:12:41.542Z,59.13
2023-03-19T04:15:48.000Z,59.26
2023-03-19T04:18:52.154Z,59.19
2023-03-19T04:21:57.914Z,59.33
2023-03-19T04:25:05.120Z,59.46
2023-03-19T04:28:14.268Z,59.48
2023-03-19T04:31:20.224Z,59.45
2023-03-19T04:34:26.174Z,59.39
2023-03-19T04:37:32.107Z,59.33
2023-03-19T04:40:37.972Z,59.56
2023-03-19T04:43:43.928Z,59.69
2023-03-19T04:46:49.773Z,59.61
2023-03-19T04:49:55.738Z,59.53
2023-03-19T04:53:01.700Z,59.65
2023-03-19T04:56:09.084Z,59.89
2023-03-19T04:59:14.843Z,59.77
2023-03-19T05:02:20.898Z,59.78
2023-03-19T05:05:27.072Z,59.92
2023-03-19T05:08:33.084Z,60.04
2023-03-19T05:11:39.396Z,60.01
2023-03-19T05:14:43.820Z,60.04
2023-03-19T05:17:50.190Z,60.35
2023-03-19T05:20:54.788Z,60.50
2023-03-19T05:24:00.674Z,60.37
2023-03-19T05:27:07.606Z,60.44
2023-03-19T05:30:16.074Z,60.63
2023-03-19T05:33:22.676Z,60.61
2023-03-19T05:36:29.221Z,60.67
2023-03-19T05:39:35.390Z,60.81
2023-03-19T05:42:41.244Z,60.91
2023-03-19T05:45:51.469Z,61.00
2023-03-19T05:48:57.464Z,61.05
2023-03-19T05:52:03.312Z,61.08
2023-03-19T05:55:11.143Z,61.09
2023-03-19T05:58:16.997Z,61.23
2023-03-19T06:01:23.264Z,61.20
2023-03-19T06:04:29.200Z,61.25
2023-03-19T06:07:35.060Z,61.40
2023-03-19T06:10:40.913Z,61.37
2023-03-19T06:13:47.328Z,61.35
2023-03-19T06:16:53.342Z,61.38
2023-03-19T06:19:59.096Z,61.72
2023-03-19T06:23:05.059Z,61.71
2023-03-19T06:26:11.036Z,61.67
2023-03-19T06:29:16.983Z,61.60
2023-03-19T06:32:22.950Z,61.73
2023-03-19T06:35:29.282Z,61.80
2023-03-19T06:38:33.466Z,61.86
2023-03-19T06:41:39.189Z,61.86
2023-03-19T06:44:45.161Z,61.88
2023-03-19T06:47:53.510Z,61.87
2023-03-19T06:50:59.718Z,61.84
2023-03-19T06:54:06.091Z,62.02
2023-03-19T06:57:10.422Z,61.84
2023-03-19T07:00:18.709Z,61.89
2023-03-19T07:03:24.483Z,61.80
2023-03-19T07:06:30.435Z,61.75
2023-03-19T07:09:36.609Z,61.70
2023-03-19T07:12:42.388Z,61.81
2023-03-19T07:15:48.319Z,61.72
2023-03-19T07:18:54.330Z,61.76
2023-03-19T07:22:00.071Z,61.94
2023-03-19T07:25:06.736Z,61.85
2023-03-19T07:28:12.564Z,61.90
2023-03-19T07:31:18.780Z,61.87
2023-03-19T07:34:23.243Z,62.03
2023-03-19T07:37:29.108Z,62.24
2023-03-19T07:40:35.244Z,62.25
2023-03-19T07:43:39.797Z,62.41
2023-03-19T07:46:45.855Z,62.30
2023-03-19T07:49:51.657Z,62.20
2023-03-19T07:52:57.565Z,62.15
2023-03-19T07:56:03.529Z,62.00
2023-03-19T07:59:09.407Z,61.88
2023-03-19T08:02:16.510Z,61.80
2023-03-19T08:05:22.624Z,61.75
2023-03-19T08:08:28.486Z,61.82
2023-03-19T08:11:34.261Z,61.77
2023-03-19T08:14:40.016Z,61.77
2023-03-19T08:17:46.055Z,61.65
2023-03-19T08:20:51.896Z,61.38
2023-03-19T08:23:57.767Z,61.20
2023-03-19T08:27:03.975Z,60.98
2023-03-19T08:30:12.357Z,60.84
2023-03-19T08:33:18.543Z,60.43
2023-03-19T08:36:22.830Z,60.22
2023-03-19T08:39:29.377Z,60.10
2023-03-19T08:42:35.704Z,59.90
2023-03-19T08:45:39.892Z,59.55
2023-03-19T08:48:46.458Z,59.24
2023-03-19T08:51:52.320Z,58.63
2023-03-19T08:54:58.381Z,58.53
2023-03-19T08:58:04.649Z,58.36
2023-03-19T09:01:10.867Z,58.11
2023-03-19T09:04:16.835Z,57.88
2023-03-19T09:07:22.760Z,57.63
2023-03-19T09:10:28.894Z,57.31
2023-03-19T09:13:35.111Z,56.88
2023-03-19T09:16:39.480Z,56.64
2023-03-19T09:19:45.339Z,56.58
2023-03-19T09:22:51.297Z,56.28
2023-03-19T09:25:57.359Z,56.19
2023-03-19T09:29:03.689Z,55.65
2023-03-19T09:32:08.536Z,55.33
2023-03-19T09:35:14.734Z,54.87
2023-03-19T09:38:19.149Z,54.68
2023-03-19T09:41:34.839Z,54.43
2023-03-19T09:44:44.381Z,54.27
2023-03-19T09:47:54.775Z,53.70
2023-03-19T09:51:04.588Z,53.11
2023-03-19T09:54:23.873Z,53.10
2023-03-19T09:57:30.029Z,52.89
2023-03-19T10:00:37.111Z,52.76
2023-03-19T10:03:54.460Z,52.37
2023-03-19T10:07:08.647Z,52.03
2023-03-19T10:10:48.610Z,51.79
2023-03-19T10:14:05.197Z,51.48
2023-03-19T10:17:20.759Z,51.08
2023-03-19T10:20:34.751Z,50.87
2023-03-19T10:23:46.918Z,50.85
2023-03-19T10:26:58.035Z,50.52
2023-03-19T10:30:07.147Z,50.25
2023-03-19T10:33:23.512Z,50.01
2023-03-19T10:36:34.694Z,49.93
2023-03-19T10:39:41.803Z,49.27
2023-03-19T10:43:04.085Z,48.72
2023-03-19T10:46:15.757Z,48.45
2023-03-19T10:49:21.538Z,48.12
2023-03-19T10:52:32.140Z,47.97
2023-03-19T10:55:38.097Z,47.51
2023-03-19T10:58:56.760Z,47.19
2023-03-19T11:02:16.501Z,47.10
2023-03-19T11:05:31.907Z,46.73
2023-03-19T11:08:40.191Z,46.48
2023-03-19T11:11:50.838Z,46.38
2023-03-19T11:14:59.469Z,45.93
2023-03-19T11:18:17.029Z,45.72
2023-03-19T11:21:30.319Z,45.47
2023-03-19T11:24:40.519Z,44.98
2023-03-19T11:27:48.136Z,44.82
2023-03-19T11:31:03.752Z,44.89
2023-03-19T11:34:30.981Z,44.63
2023-03-19T11:37:52.196Z,44.22
2023-03-19T11:41:07.174Z,43.90
2023-03-19T11:44:21.017Z,43.88
2023-03-19T11:47:36.393Z,43.75
2023-03-19T11:50:50.576Z,43.67
2023-03-19T11:54:06.665Z,43.44
2023-03-19T11:57:20.036Z,43.49
2023-03-19T12:00:34.023Z,43.17
2023-03-19T12:04:15.546Z,43.01
2023-03-19T12:07:31.729Z,42.77
2023-03-19T12:10:53.734Z,42.21
2023-03-19T12:14:25.313Z,42.07
2023-03-19T12:17:45.985Z,41.71
2023-03-19T12:21:04.988Z,41.50
2023-03-19T12:24:23.648Z,41.39
2023-03-19T12:27:40.816Z,41.03
2023-03-19T12:30:50.783Z,41.20
2023-03-19T12:34:07.831Z,40.58
2023-03-19T12:37:22.639Z,40.38
2023-03-19T12:40:36.964Z,40.47
2023-03-19T12:43:51.454Z,40.23
2023-03-19T12:47:04.414Z,40.01
2023-03-19T12:50:15.415Z,40.19
2023-03-19T12:53:32.981Z,39.27
2023-03-19T12:56:45.167Z,39.45
2023-03-19T12:59:56.638Z,39.07
2023-03-19T13:03:09.292Z,38.82
2023-03-19T13:06:21.922Z,38.99
2023-03-19T13:09:33.305Z,38.91
2023-03-19T13:12:39.787Z,38.84
2023-03-19T13:15:50.300Z,38.69
2023-03-19T13:19:09.977Z,38.57
2023-03-19T13:22:20.604Z,38.39
2023-03-19T13:25:33.880Z,38.00
2023-03-19T13:28:55.230Z,38.13
2023-03-19T13:32:07.638Z,37.81
2023-03-19T13:35:21.862Z,37.60
2023-03-19T13:38:34.436Z,37.71
2023-03-19T13:42:09.042Z,37.46
2023-03-19T13:45:35.990Z,37.36
2023-03-19T13:48:52.889Z,37.04
2023-03-19T13:52:04.265Z,36.97
2023-03-19T13:55:34.494Z,36.91
2023-03-19T13:58:53.135Z,36.74
2023-03-19T14:02:00.242Z,36.73
2023-03-19T14:05:10.533Z,36.56
2023-03-19T14:08:24.602Z,36.37
2023-03-19T14:11:34.058Z,36.50
2023-03-19T14:14:45.362Z,36.46
2023-03-19T14:18:01.567Z,36.35
2023-03-19T14:21:12.955Z,36.02
2023-03-19T14:28:06.740Z,36.09
2023-03-19T14:31:23.113Z,36.10
2023-03-19T14:34:33.828Z,35.98
2023-03-19T14:37:49.210Z,36.02
2023-03-19T14:40:57.339Z,36.11
2023-03-19T14:44:24.508Z,35.95
2023-03-19T14:47:48.982Z,35.89
2023-03-19T14:51:10.655Z,35.89
2023-03-19T14:54:29.284Z,35.88
2023-03-19T14:57:36.304Z,35.84
2023-03-19T15:00:44.705Z,35.83
2023-03-19T15:03:56.910Z,35.75
2023-03-19T15:07:03.243Z,35.73
2023-03-19T15:10:16.074Z,35.76
2023-03-19T15:13:37.062Z,35.62
2023-03-19T15:16:54.950Z,35.66
2023-03-19T15:20:03.645Z,35.74
2023-03-19T15:23:25.675Z,35.49
2023-03-19T15:26:37.963Z,35.38
2023-03-19T15:29:44.270Z,35.58
2023-03-19T15:33:04.233Z,35.65
2023-03-19T15:36:18.553Z,35.66
2023-03-19T15:39:27.733Z,35.63
2023-03-19T15:42:34.097Z,35.61
2023-03-19T15:45:40.994Z,35.75
2023-03-19T15:48:50.977Z,35.78
2023-03-19T15:52:03.053Z,35.76
2023-03-19T15:55:10.590Z,35.81
2023-03-19T15:58:21.534Z,35.86
2023-03-19T16:01:28.231Z,35.91
2023-03-19T16:04:55.979Z,35.97
2023-03-19T16:08:04.955Z,35.98
2023-03-19T16:11:27.314Z,36.02
2023-03-19T16:14:41.949Z,36.22
2023-03-19T16:17:49.374Z,36.14
2023-03-19T16:21:14.485Z,36.21
2023-03-19T16:24:27.542Z,36.33
2023-03-19T16:27:38.450Z,36.44
2023-03-19T16:30:49.609Z,36.44
2023-03-19T16:33:57.232Z,36.53
2023-03-19T16:37:03.859Z,36.59
2023-03-19T16:40:41.198Z,36.63
2023-03-19T16:43:48.747Z,36.85
2023-03-19T16:46:55.581Z,36.99
2023-03-19T16:50:01.662Z,37.08
2023-03-19T16:53:16.230Z,37.11
2023-03-19T16:56:22.293Z,37.03
2023-03-19T16:59:30.962Z,37.33
2023-03-19T17:02:36.695Z,37.60
2023-03-19T17:05:42.720Z,37.64
2023-03-19T17:08:49.265Z,37.75
2023-03-19T17:11:55.359Z,37.99
2023-03-19T17:15:01.643Z,38.46
2023-03-19T17:18:11.599Z,38.85
2023-03-19T17:21:22.574Z,39.11
2023-03-19T17:24:30.901Z,39.24
2023-03-19T17:27:37.339Z,39.42
2023-03-19T17:30:41.666Z,39.59
2023-03-19T17:33:47.846Z,39.91
2023-03-19T17:36:53.432Z,40.04
2023-03-19T17:39:59.299Z,40.17
2023-03-19T17:43:06.943Z,40.24
2023-03-19T17:46:17.569Z,40.37
2023-03-19T17:49:26.234Z,40.53
2023-03-19T17:52:32.013Z,40.61
2023-03-19T17:55:37.839Z,40.93
2023-03-19T17:58:44.004Z,41.08
2023-03-19T18:01:50.068Z,41.20
2023-03-19T18:04:56.337Z,41.41
2023-03-19T18:08:00.448Z,41.58
2023-03-19T18:11:06.781Z,41.96
2023-03-19T18:14:12.785Z,42.16
2023-03-19T18:17:20.364Z,42.23
2023-03-19T18:20:29.815Z,42.60
2023-03-19T18:23:35.580Z,42.80
2023-03-19T18:26:41.725Z,42.95
2023-03-19T18:29:48.003Z,43.06
2023-03-19T18:32:57.146Z,43.19
2023-03-19T18:36:04.402Z,43.32
2023-03-19T18:39:14.342Z,43.44
2023-03-19T18:42:20.360Z,43.64
2023-03-19T18:45:30.607Z,43.86
2023-03-19T18:48:36.661Z,44.07
2023-03-19T18:51:58.791Z,44.12
2023-03-19T18:55:07.974Z,44.37
2023-03-19T18:58:20.533Z,44.74
2023-03-19T19:01:27.885Z,44.72
2023-03-19T19:04:33.836Z,44.85
2023-03-19T19:07:39.758Z,45.23
2023-03-19T19:10:48.537Z,45.31
2023-03-19T19:13:57.223Z,45.43
2023-03-19T19:17:03.201Z,45.56
2023-03-19T19:20:12.018Z,45.61
2023-03-19T19:23:18.585Z,45.77
2023-03-19T19:26:27.027Z,45.92
2023-03-19T19:29:32.938Z,46.01
2023-03-19T19:32:39.504Z,46.35
2023-03-19T19:35:45.942Z,46.32
2023-03-19T19:38:52.257Z,46.56
2023-03-19T19:41:56.995Z,46.84
2023-03-19T19:45:03.868Z,47.02
2023-03-19T19:48:16.810Z,47.13
2023-03-19T19:51:24.921Z,47.11
2023-03-19T19:54:30.857Z,47.28
2023-03-19T19:57:36.924Z,47.54
2023-03-19T20:00:47.748Z,47.53
2023-03-19T20:03:59.629Z,47.71
2023-03-19T20:07:05.548Z,47.77
2023-03-19T20:10:14.433Z,47.93
2023-03-19T20:13:26.195Z,48.08
2023-03-19T20:16:31.995Z,48.33
2023-03-19T20:19:37.884Z,48.33
2023-03-19T20:22:43.945Z,48.50
2023-03-19T20:25:51.070Z,48.75
2023-03-19T20:28:57.091Z,48.90
2023-03-19T20:32:03.152Z,49.01
2023-03-19T20:35:16.072Z,49.22
2023-03-19T20:38:21.826Z,49.32
2023-03-19T20:41:28.605Z,49.43
2023-03-19T20:44:34.672Z,49.58
2023-03-19T20:47:40.859Z,49.64
2023-03-19T20:50:47.935Z,49.86
2023-03-19T20:53:54.102Z,49.99
2023-03-19T20:56:59.989Z,49.98
2023-03-19T21:00:18.499Z,50.11
2023-03-19T21:03:26.397Z,50.27
2023-03-19T21:06:42.720Z,50.47
2023-03-19T21:09:58.124Z,50.52
2023-03-19T21:13:05.491Z,50.60
2023-03-19T21:16:17.543Z,50.75
2023-03-19T21:19:25.940Z,50.90
2023-03-19T21:22:33.143Z,51.07
2023-03-19T21:25:39.327Z,51.32
2023-03-19T21:28:46.637Z,51.40
2023-03-19T21:31:57.945Z,51.46
2023-03-19T21:35:03.776Z,51.62
2023-03-19T21:38:09.634Z,51.69
2023-03-19T21:41:25.115Z,51.80
2023-03-19T21:44:31.487Z,51.95
2023-03-19T21:47:37.228Z,52.05
2023-03-19T21:50:43.541Z,52.18
2023-03-19T21:53:48.056Z,52.27
2023-03-19T21:56:53.849Z,52.41
2023-03-19T21:59:59.745Z,52.51
2023-03-19T22:03:05.809Z,52.62
2023-03-19T22:06:12.754Z,52.66
2023-03-19T22:09:18.645Z,52.80
2023-03-19T22:12:29.109Z,52.93
2023-03-19T22:15:38.020Z,53.08
2023-03-19T22:18:43.926Z,53.22
2023-03-19T22:21:50.731Z,53.08
2023-03-19T22:24:59.369Z,53.28
2023-03-19T22:28:10.524Z,53.27
2023-03-19T22:31:16.617Z,53.43
2023-03-19T22:34:25.267Z,53.64
2023-03-19T22:37:31.991Z,53.58
2023-03-19T22:40:38.721Z,53.69
2023-03-19T22:43:46.269Z,53.94
2023-03-19T22:46:52.166Z,53.93
2023-03-19T22:49:58.471Z,53.98
2023-03-19T22:53:02.768Z,54.12
2023-03-19T22:56:10.893Z,54.43
2023-03-19T22:59:16.734Z,54.43
2023-03-19T23:02:22.613Z,54.47
2023-03-19T23:05:31.815Z,54.57
2023-03-19T23:08:37.650Z,54.78
2023-03-19T23:11:43.854Z,54.91
2023-03-19T23:14:49.922Z,54.96
2023-03-19T23:17:58.269Z,54.93
2023-03-19T23:21:05.087Z,55.26
2023-03-19T23:24:14.746Z,55.34
2023-03-19T23:27:26.100Z,55.54
2023-03-19T23:30:34.176Z,55.47
2023-03-19T23:33:40.200Z,55.49
2023-03-19T23:36:46.381Z,55.59
2023-03-19T23:39:53.764Z,55.70
2023-03-19T23:43:02.274Z,55.78
2023-03-19T23:46:11.637Z,55.91
2023-03-19T23:49:19.429Z,56.09
2023-03-19T23:52:25.275Z,56.12
2023-03-19T23:55:32.410Z,56.24
2023-03-19T23:58:43.240Z,56.28
